createdAt,value
2023-05-10T00:00:43.711Z,14.45
2023-05-10T00:01:44.566Z,14.36
2023-05-10T00:02:45.705Z,14.4
2023-05-10T00:03:46.044Z,14.3
2023-05-10T00:04:46.076Z,14.43
2023-05-10T00:05:46.806Z,14.4
2023-05-10T00:06:47.348Z,14.4
2023-05-10T00:07:47.884Z,14.41
2023-05-10T00:08:48.997Z,14.37
2023-05-10T00:09:48.927Z,14.45
2023-05-10T00:10:49.859Z,14.45
2023-05-10T00:11:50.816Z,14.48
2023-05-10T00:12:51.416Z,14.49
2023-05-10T00:13:52.662Z,14.41
2023-05-10T00:15:53.409Z,14.41
2023-05-10T00:16:54.441Z,14.51
2023-05-10T00:17:54.366Z,14.43
2023-05-10T00:18:55.171Z,14.43
2023-05-10T00:19:55.888Z,14.45
2023-05-10T00:20:56.193Z,14.49
2023-05-10T00:21:56.907Z,14.51
2023-05-10T00:22:57.836Z,14.48
2023-05-10T00:23:58.992Z,14.48
2023-05-10T00:24:59.658Z,14.41
2023-05-10T00:26:00.185Z,14.48
2023-05-10T00:27:01.364Z,14.53
2023-05-10T00:28:01.658Z,14.58
2023-05-10T00:29:02.624Z,14.55
2023-05-10T00:30:03.140Z,14.53
2023-05-10T00:31:03.813Z,14.53
2023-05-10T00:32:04.396Z,14.58
2023-05-10T00:33:05.324Z,14.52
2023-05-10T00:34:05.955Z,14.49
2023-05-10T00:35:07.220Z,14.56
2023-05-10T00:36:07.961Z,14.53
2023-05-10T00:37:08.888Z,14.56
2023-05-10T00:38:08.818Z,14.45
2023-05-10T00:39:09.116Z,14.43
2023-05-10T00:40:09.849Z,14.48
2023-05-10T00:41:09.804Z,14.44
2023-05-10T00:42:10.369Z,14.38
2023-05-10T00:43:10.706Z,14.43
2023-05-10T00:44:11.502Z,14.37
2023-05-10T00:45:12.128Z,14.4
2023-05-10T00:46:12.756Z,14.4
2023-05-10T00:47:13.862Z,14.41
2023-05-10T00:48:14.604Z,14.51
2023-05-10T00:49:15.135Z,14.36
2023-05-10T00:50:15.709Z,14.37
2023-05-10T00:51:16.249Z,14.38
2023-05-10T00:52:16.745Z,14.44
2023-05-10T00:53:17.270Z,14.33
2023-05-10T00:54:18.014Z,14.34
2023-05-10T00:55:18.188Z,14.38
2023-05-10T00:56:18.712Z,14.31
2023-05-10T00:57:19.440Z,14.26
2023-05-10T00:58:19.775Z,14.28
2023-05-10T00:59:20.532Z,14.33
2023-05-10T01:00:21.936Z,14.37
2023-05-10T01:01:21.713Z,14.36
2023-05-10T01:02:22.585Z,14.31
2023-05-10T01:03:22.788Z,14.34
2023-05-10T01:04:23.050Z,14.26
2023-05-10T01:05:23.666Z,14.37
2023-05-10T01:06:24.026Z,14.37
2023-05-10T01:07:25.338Z,14.31
2023-05-10T01:08:26.073Z,14.31
2023-05-10T01:09:26.450Z,14.31
2023-05-10T01:10:27.396Z,14.25
2023-05-10T01:11:27.887Z,14.37
2023-05-10T01:12:28.559Z,14.37
2023-05-10T01:13:29.642Z,14.3
2023-05-10T01:14:30.424Z,14.33
2023-05-10T01:15:30.514Z,14.38
2023-05-10T01:16:31.035Z,14.36
2023-05-10T01:17:31.274Z,14.28
2023-05-10T01:18:31.790Z,14.23
2023-05-10T01:19:32.087Z,14.38
2023-05-10T01:20:32.777Z,14.36
2023-05-10T01:21:33.481Z,14.34
2023-05-10T01:22:34.204Z,14.34
2023-05-10T01:23:34.739Z,14.3
2023-05-10T01:24:35.214Z,14.34
2023-05-10T01:25:35.991Z,14.34
2023-05-10T01:26:36.536Z,14.3
2023-05-10T01:27:37.208Z,14.36
2023-05-10T01:28:37.911Z,14.33
2023-05-10T01:29:38.450Z,14.33
2023-05-10T01:30:39.288Z,14.25
2023-05-10T01:31:39.818Z,14.31
2023-05-10T01:32:40.394Z,14.36
2023-05-10T01:33:41.215Z,14.28
2023-05-10T01:34:42.120Z,14.36
2023-05-10T01:35:42.561Z,14.3
2023-05-10T01:36:43.061Z,14.23
2023-05-10T01:37:43.967Z,14.31
2023-05-10T01:38:44.477Z,14.3
2023-05-10T01:39:44.787Z,14.31
2023-05-10T01:40:45.695Z,14.33
2023-05-10T01:41:46.856Z,14.41
2023-05-10T01:42:47.402Z,14.3
2023-05-10T01:43:47.955Z,14.38
2023-05-10T01:44:48.686Z,14.3
2023-05-10T01:45:49.267Z,14.37
2023-05-10T01:46:49.957Z,14.37
2023-05-10T01:47:50.242Z,14.33
2023-05-10T01:48:50.882Z,14.4
2023-05-10T01:49:51.359Z,14.31
2023-05-10T01:50:51.941Z,14.41
2023-05-10T01:51:52.434Z,14.44
2023-05-10T01:52:52.986Z,14.43
2023-05-10T01:53:54.057Z,14.4
2023-05-10T01:54:54.342Z,14.37
2023-05-10T01:55:54.644Z,14.31
2023-05-10T01:56:55.240Z,14.33
2023-05-10T01:57:56.061Z,14.33
2023-05-10T01:58:56.747Z,14.34
2023-05-10T01:59:57.491Z,14.33
2023-05-10T02:00:57.445Z,14.38
2023-05-10T02:01:57.896Z,14.25
2023-05-10T02:02:58.544Z,14.36
2023-05-10T02:03:59.589Z,14.26
2023-05-10T02:04:59.757Z,14.26
2023-05-10T02:06:00.593Z,14.25
2023-05-10T02:07:01.300Z,14.25
2023-05-10T02:08:02.021Z,14.25
2023-05-10T02:09:03.151Z,14.25
2023-05-10T02:10:03.849Z,14.3
2023-05-10T02:11:04.082Z,14.23
2023-05-10T02:12:04.785Z,14.25
2023-05-10T02:13:05.766Z,14.34
2023-05-10T02:14:05.825Z,14.34
2023-05-10T02:15:06.881Z,14.23
2023-05-10T02:16:07.360Z,14.33
2023-05-10T02:17:07.745Z,14.25
2023-05-10T02:18:08.709Z,14.33
2023-05-10T02:19:09.570Z,14.31
2023-05-10T02:20:10.286Z,14.3
2023-05-10T02:21:11.164Z,14.31
2023-05-10T02:22:11.665Z,14.3
2023-05-10T02:23:12.160Z,14.25
2023-05-10T02:24:12.691Z,14.34
2023-05-10T02:25:13.260Z,14.33
2023-05-10T02:26:12.974Z,14.3
2023-05-10T02:27:13.706Z,14.37
2023-05-10T02:28:14.651Z,14.23
2023-05-10T02:29:15.199Z,14.26
2023-05-10T02:30:16.578Z,14.23
2023-05-10T02:31:16.468Z,14.25
2023-05-10T02:32:17.799Z,14.3
2023-05-10T02:33:17.766Z,14.26
2023-05-10T02:34:18.913Z,14.3
2023-05-10T02:35:18.846Z,14.28
2023-05-10T02:36:19.901Z,14.26
2023-05-10T02:37:20.610Z,14.28
2023-05-10T02:38:21.133Z,14.16
2023-05-10T02:39:21.730Z,14.23
2023-05-10T02:40:23.015Z,14.22
2023-05-10T02:41:23.613Z,14.22
2023-05-10T02:42:24.342Z,14.22
2023-05-10T02:43:24.680Z,14.16
2023-05-10T02:44:25.631Z,14.16
2023-05-10T02:45:26.205Z,14.04
2023-05-10T02:46:27.116Z,14.15
2023-05-10T02:47:27.747Z,14.13
2023-05-10T02:48:27.721Z,14.03
2023-05-10T02:49:28.250Z,14.07
2023-05-10T02:50:29.133Z,14.07
2023-05-10T02:51:29.636Z,14.05
2023-05-10T02:52:30.319Z,14.08
2023-05-10T02:53:30.261Z,14.04
2023-05-10T02:54:30.752Z,14.11
2023-05-10T02:55:31.265Z,14.04
2023-05-10T02:56:31.572Z,14.08
2023-05-10T02:57:32.252Z,14.04
2023-05-10T02:58:33.014Z,14.08
2023-05-10T02:59:33.694Z,14.05
2023-05-10T03:00:34.694Z,14.05
2023-05-10T03:01:35.628Z,14.08
2023-05-10T03:02:36.203Z,14.05
2023-05-10T03:03:36.833Z,14.04
2023-05-10T03:04:37.865Z,14.01
2023-05-10T03:05:38.113Z,14.04
2023-05-10T03:06:38.578Z,14.07
2023-05-10T03:07:39.279Z,14.07
2023-05-10T03:08:40.019Z,14.03
2023-05-10T03:09:40.976Z,14.03
2023-05-10T03:10:41.718Z,14.04
2023-05-10T03:11:42.475Z,14.05
2023-05-10T03:12:42.650Z,14.04
2023-05-10T03:13:43.451Z,14.08
2023-05-10T03:14:43.943Z,14.07
2023-05-10T03:15:44.386Z,14.04
2023-05-10T03:16:45.332Z,14.04
2023-05-10T03:17:45.114Z,14.04
2023-05-10T03:18:45.871Z,14.01
2023-05-10T03:19:46.572Z,14.04
2023-05-10T03:20:47.471Z,14.15
2023-05-10T03:21:48.162Z,14.04
2023-05-10T03:22:48.681Z,14.13
2023-05-10T03:23:49.257Z,14
2023-05-10T03:24:49.773Z,14.04
2023-05-10T03:25:50.080Z,14.07
2023-05-10T03:26:50.715Z,14.05
2023-05-10T03:27:51.201Z,14.07
2023-05-10T03:28:51.713Z,14.04
2023-05-10T03:29:52.446Z,14.07
2023-05-10T03:30:53.093Z,14.05
2023-05-10T03:31:53.933Z,14.07
2023-05-10T03:32:55.091Z,14.05
2023-05-10T03:33:55.958Z,14.03
2023-05-10T03:34:56.839Z,14
2023-05-10T03:35:57.158Z,13.98
2023-05-10T03:36:57.335Z,14
2023-05-10T03:37:58.234Z,13.87
2023-05-10T03:38:58.356Z,13.97
2023-05-10T03:39:58.785Z,13.95
2023-05-10T03:40:59.479Z,13.94
2023-05-10T03:42:00.251Z,13.95
2023-05-10T03:43:00.754Z,13.91
2023-05-10T03:44:01.722Z,13.94
2023-05-10T03:45:01.833Z,13.83
2023-05-10T03:46:02.568Z,13.86
2023-05-10T03:47:03.629Z,13.91
2023-05-10T03:48:03.531Z,13.85
2023-05-10T03:49:04.402Z,13.82
2023-05-10T03:50:04.684Z,13.97
2023-05-10T03:51:04.711Z,13.85
2023-05-10T03:52:05.219Z,13.83
2023-05-10T03:53:05.934Z,13.83
2023-05-10T03:54:06.863Z,13.85
2023-05-10T03:55:07.634Z,13.85
2023-05-10T03:56:08.360Z,13.94
2023-05-10T03:57:08.442Z,13.85
2023-05-10T03:58:08.885Z,13.86
2023-05-10T03:59:09.869Z,13.78
2023-05-10T04:00:10.821Z,13.8
2023-05-10T04:01:11.125Z,13.79
2023-05-10T04:02:12.115Z,13.78
2023-05-10T04:03:13.367Z,13.71
2023-05-10T04:04:13.401Z,13.79
2023-05-10T04:05:14.379Z,13.75
2023-05-10T04:06:15.552Z,13.73
2023-05-10T04:07:15.807Z,13.67
2023-05-10T04:08:16.730Z,13.71
2023-05-10T04:09:17.099Z,13.75
2023-05-10T04:10:18.545Z,13.79
2023-05-10T04:11:18.054Z,13.78
2023-05-10T04:12:18.630Z,13.79
2023-05-10T04:13:19.681Z,13.82
2023-05-10T04:14:20.616Z,13.82
2023-05-10T04:15:21.319Z,13.83
2023-05-10T04:16:21.966Z,13.86
2023-05-10T04:17:23.072Z,13.87
2023-05-10T04:18:23.671Z,13.87
2023-05-10T04:19:24.424Z,13.83
2023-05-10T04:20:25.165Z,13.75
2023-05-10T04:21:25.679Z,13.78
2023-05-10T04:22:26.004Z,13.82
2023-05-10T04:23:26.987Z,13.79
2023-05-10T04:24:27.317Z,13.79
2023-05-10T04:25:28.052Z,13.73
2023-05-10T04:26:28.573Z,13.78
2023-05-10T04:27:29.026Z,13.71
2023-05-10T04:28:29.965Z,13.71
2023-05-10T04:29:30.541Z,13.73
2023-05-10T04:30:31.394Z,13.68
2023-05-10T04:31:31.882Z,13.73
2023-05-10T04:32:32.980Z,13.7
2023-05-10T04:33:33.830Z,13.73
2023-05-10T04:34:33.728Z,13.73
2023-05-10T04:35:34.279Z,13.62
2023-05-10T04:36:34.979Z,13.67
2023-05-10T04:37:35.367Z,13.65
2023-05-10T04:38:35.891Z,13.71
2023-05-10T04:39:36.611Z,13.7
2023-05-10T04:40:37.901Z,13.68
2023-05-10T04:41:38.844Z,13.64
2023-05-10T04:42:39.185Z,13.64
2023-05-10T04:43:39.591Z,13.57
2023-05-10T04:44:40.400Z,13.54
2023-05-10T04:45:40.894Z,13.52
2023-05-10T04:46:42.013Z,13.46
2023-05-10T04:47:42.168Z,13.55
2023-05-10T04:48:42.738Z,13.57
2023-05-10T04:49:42.850Z,13.5
2023-05-10T04:50:43.329Z,13.5
2023-05-10T04:51:44.218Z,13.46
2023-05-10T04:52:44.133Z,13.4
2023-05-10T04:54:05.014Z,13.4
2023-05-10T04:54:44.857Z,13.31
2023-05-10T04:55:45.454Z,13.3
2023-05-10T04:56:45.969Z,13.3
2023-05-10T04:57:46.423Z,13.3
2023-05-10T04:58:46.937Z,13.28
2023-05-10T04:59:49.720Z,13.3
2023-05-10T05:00:47.978Z,13.28
2023-05-10T05:01:48.190Z,13.28
2023-05-10T05:02:48.927Z,13.4
2023-05-10T05:03:49.355Z,13.37
2023-05-10T05:04:49.247Z,13.21
2023-05-10T05:05:49.950Z,13.21
2023-05-10T05:06:53.956Z,13.26
2023-05-10T05:08:51.394Z,13.33
2023-05-10T05:09:52.310Z,13.37
2023-05-10T05:10:52.630Z,13.21
2023-05-10T05:11:53.155Z,13.26
2023-05-10T05:12:53.996Z,13.26
2023-05-10T05:13:54.824Z,13.27
2023-05-10T05:14:55.659Z,13.23
2023-05-10T05:15:56.176Z,13.31
2023-05-10T05:16:56.093Z,13.3
2023-05-10T05:17:56.366Z,13.37
2023-05-10T05:18:56.892Z,13.37
2023-05-10T05:19:57.701Z,13.27
2023-05-10T05:20:58.666Z,13.23
2023-05-10T05:21:59.587Z,13.2
2023-05-10T05:23:00.524Z,13.26
2023-05-10T05:24:01.164Z,13.21
2023-05-10T05:25:01.663Z,13.36
2023-05-10T05:26:02.203Z,13.26
2023-05-10T05:27:02.937Z,13.28
2023-05-10T05:28:03.636Z,13.24
2023-05-10T05:29:04.361Z,13.28
2023-05-10T05:30:04.705Z,13.28
2023-05-10T05:31:05.839Z,13.28
2023-05-10T05:32:06.937Z,13.2
2023-05-10T05:33:07.524Z,13.27
2023-05-10T05:34:07.924Z,13.26
2023-05-10T05:35:08.251Z,13.2
2023-05-10T05:36:09.115Z,13.24
2023-05-10T05:37:09.603Z,13.26
2023-05-10T05:38:10.067Z,13.33
2023-05-10T05:39:10.364Z,13.28
2023-05-10T05:40:11.093Z,13.23
2023-05-10T05:41:12.074Z,13.36
2023-05-10T05:42:12.972Z,13.4
2023-05-10T05:43:13.919Z,13.26
2023-05-10T05:44:14.412Z,13.23
2023-05-10T05:45:15.581Z,13.21
2023-05-10T05:46:15.806Z,13.37
2023-05-10T05:47:15.564Z,13.24
2023-05-10T05:48:16.515Z,13.23
2023-05-10T05:49:17.300Z,13.21
2023-05-10T05:50:17.295Z,13.19
2023-05-10T05:51:18.077Z,13.13
2023-05-10T05:52:18.969Z,13.08
2023-05-10T05:53:19.684Z,13.12
2023-05-10T05:54:20.201Z,13.16
2023-05-10T05:55:21.290Z,13.09
2023-05-10T05:56:21.340Z,13.02
2023-05-10T05:57:21.821Z,13.03
2023-05-10T05:58:22.474Z,13.01
2023-05-10T05:59:23.191Z,13.01
2023-05-10T06:00:23.817Z,13.02
2023-05-10T06:01:24.533Z,13.01
2023-05-10T06:02:25.540Z,12.98
2023-05-10T06:03:25.893Z,12.93
2023-05-10T06:04:26.471Z,12.87
2023-05-10T06:05:26.699Z,12.87
2023-05-10T06:06:27.020Z,12.83
2023-05-10T06:07:27.525Z,12.87
2023-05-10T06:08:28.203Z,12.84
2023-05-10T06:09:28.688Z,12.91
2023-05-10T06:10:29.068Z,12.9
2023-05-10T06:11:29.703Z,12.9
2023-05-10T06:12:30.034Z,12.93
2023-05-10T06:13:30.850Z,12.94
2023-05-10T06:14:31.321Z,12.98
2023-05-10T06:15:32.272Z,12.94
2023-05-10T06:16:33.086Z,12.98
2023-05-10T06:17:34.129Z,12.99
2023-05-10T06:18:34.255Z,12.99
2023-05-10T06:19:34.167Z,13.03
2023-05-10T06:20:35.092Z,13.01
2023-05-10T06:21:35.435Z,13.02
2023-05-10T06:22:36.204Z,13.09
2023-05-10T06:23:36.905Z,13.03
2023-05-10T06:24:37.635Z,13.05
2023-05-10T06:25:38.332Z,13.08
2023-05-10T06:26:39.057Z,13.08
2023-05-10T06:27:39.975Z,13.16
2023-05-10T06:28:40.272Z,13.12
2023-05-10T06:29:40.994Z,13.13
2023-05-10T06:30:41.458Z,13.13
2023-05-10T06:31:42.342Z,13.19
2023-05-10T06:32:43.540Z,13.21
2023-05-10T06:33:43.825Z,13.24
2023-05-10T06:34:43.822Z,13.27
2023-05-10T06:35:44.544Z,13.33
2023-05-10T06:36:45.503Z,13.39
2023-05-10T06:37:46.485Z,13.21
2023-05-10T06:38:47.195Z,13.24
2023-05-10T06:39:47.733Z,13.4
2023-05-10T06:40:48.422Z,13.37
2023-05-10T06:41:49.165Z,13.45
2023-05-10T06:42:50.058Z,13.4
2023-05-10T06:43:50.193Z,13.45
2023-05-10T06:44:50.703Z,13.5
2023-05-10T06:45:51.444Z,13.6
2023-05-10T06:46:52.332Z,13.57
2023-05-10T06:47:53.222Z,13.52
2023-05-10T06:48:54.012Z,13.57
2023-05-10T06:49:54.520Z,13.61
2023-05-10T06:50:55.285Z,13.73
2023-05-10T06:51:55.977Z,13.76
2023-05-10T06:52:58.572Z,13.73
2023-05-10T06:54:58.220Z,13.8
2023-05-10T06:55:58.358Z,13.79
2023-05-10T06:56:58.952Z,13.78
2023-05-10T06:57:59.528Z,13.68
2023-05-10T06:59:00.530Z,13.85
2023-05-10T07:00:01.489Z,13.76
2023-05-10T07:01:01.679Z,13.8
2023-05-10T07:02:02.970Z,13.82
2023-05-10T07:03:03.195Z,13.87
2023-05-10T07:04:03.273Z,13.78
2023-05-10T07:05:07.272Z,13.87
2023-05-10T07:07:04.693Z,13.85
2023-05-10T07:08:05.609Z,13.85
2023-05-10T07:09:06.012Z,13.86
2023-05-10T07:10:06.765Z,13.98
2023-05-10T07:11:07.337Z,13.98
2023-05-10T07:12:12.805Z,13.87
2023-05-10T07:13:09.246Z,13.98
2023-05-10T07:14:09.697Z,13.91
2023-05-10T07:15:10.654Z,13.97
2023-05-10T07:16:11.286Z,14.01
2023-05-10T07:17:11.172Z,14.08
2023-05-10T07:18:12.220Z,14.03
2023-05-10T07:19:12.910Z,14.03
2023-05-10T07:20:13.451Z,14.07
2023-05-10T07:21:14.596Z,14.07
2023-05-10T07:22:14.673Z,14.01
2023-05-10T07:23:15.606Z,14.03
2023-05-10T07:24:16.188Z,14.11
2023-05-10T07:25:16.914Z,14.15
2023-05-10T07:26:17.808Z,14.07
2023-05-10T07:27:18.829Z,14.07
2023-05-10T07:28:18.837Z,13.95
2023-05-10T07:29:20.030Z,14
2023-05-10T07:30:20.313Z,13.91
2023-05-10T07:31:20.359Z,13.97
2023-05-10T07:32:20.338Z,13.91
2023-05-10T07:33:21.489Z,13.93
2023-05-10T07:34:22.477Z,13.93
2023-05-10T07:35:23.496Z,14.05
2023-05-10T07:36:24.006Z,13.97
2023-05-10T07:37:25.117Z,13.94
2023-05-10T07:38:25.680Z,13.93
2023-05-10T07:39:32.803Z,13.97
2023-05-10T07:41:28.614Z,13.94
2023-05-10T07:42:29.456Z,13.98
2023-05-10T07:43:30.305Z,13.91
2023-05-10T07:44:31.354Z,13.91
2023-05-10T07:45:31.306Z,13.97
2023-05-10T07:46:32.450Z,13.82
2023-05-10T07:47:32.447Z,13.85
2023-05-10T07:48:33.482Z,13.91
2023-05-10T07:49:33.372Z,13.85
2023-05-10T07:50:33.691Z,13.83
2023-05-10T07:51:34.706Z,13.83
2023-05-10T07:52:35.653Z,13.87
2023-05-10T07:53:35.609Z,13.86
2023-05-10T07:54:36.850Z,13.73
2023-05-10T07:55:37.013Z,13.78
2023-05-10T07:56:37.953Z,13.67
2023-05-10T07:57:37.907Z,13.62
2023-05-10T07:58:39.064Z,13.65
2023-05-10T07:59:40.002Z,13.64
2023-05-10T08:00:39.990Z,13.73
2023-05-10T08:01:39.948Z,13.64
2023-05-10T08:02:41.339Z,13.64
2023-05-10T08:03:42.205Z,13.7
2023-05-10T08:04:43.254Z,13.68
2023-05-10T08:05:43.049Z,13.71
2023-05-10T08:06:44.275Z,13.71
2023-05-10T08:07:44.847Z,13.75
2023-05-10T08:08:45.990Z,13.73
2023-05-10T08:09:46.155Z,13.79
2023-05-10T08:10:47.157Z,13.8
2023-05-10T08:11:48.233Z,13.75
2023-05-10T08:12:48.446Z,13.8
2023-05-10T08:13:48.916Z,13.82
2023-05-10T08:14:49.873Z,13.75
2023-05-10T08:15:50.995Z,13.78
2023-05-10T08:16:51.282Z,13.79
2023-05-10T08:17:52.138Z,13.75
2023-05-10T08:18:52.654Z,13.89
2023-05-10T08:20:53.481Z,13.85
2023-05-10T08:21:54.214Z,13.93
2023-05-10T08:22:57.618Z,13.82
2023-05-10T08:24:56.206Z,13.86
2023-05-10T08:25:56.457Z,13.93
2023-05-10T08:26:57.421Z,13.95
2023-05-10T08:27:58.457Z,13.91
2023-05-10T08:28:59.190Z,14.04
2023-05-10T08:29:59.347Z,14.03
2023-05-10T08:31:00.695Z,14.04
2023-05-10T08:32:00.976Z,14.04
2023-05-10T08:33:02.208Z,14.19
2023-05-10T08:34:02.546Z,14.2
2023-05-10T08:35:02.522Z,14.28
2023-05-10T08:36:03.365Z,14.31
2023-05-10T08:37:04.074Z,14.38
2023-05-10T08:38:04.921Z,14.37
2023-05-10T08:39:16.440Z,14.4
2023-05-10T08:41:13.685Z,14.49
2023-05-10T08:42:14.731Z,14.45
2023-05-10T08:43:15.510Z,14.58
2023-05-10T08:44:16.397Z,14.58
2023-05-10T08:45:17.317Z,14.56
2023-05-10T08:46:17.482Z,14.52
2023-05-10T08:47:18.615Z,14.56
2023-05-10T08:48:19.402Z,14.61
2023-05-10T08:49:19.676Z,14.58
2023-05-10T08:50:19.748Z,14.52
2023-05-10T08:51:19.911Z,14.56
2023-05-10T08:52:20.657Z,14.45
2023-05-10T08:53:21.431Z,14.37
2023-05-10T08:54:22.181Z,14.4
2023-05-10T08:55:23.334Z,14.36
2023-05-10T08:56:23.444Z,14.38
2023-05-10T08:57:23.833Z,14.41
2023-05-10T08:58:24.588Z,14.38
2023-05-10T08:59:24.807Z,14.34
2023-05-10T09:00:25.650Z,14.37
2023-05-10T09:01:26.302Z,14.38
2023-05-10T09:02:26.906Z,14.38
2023-05-10T09:03:27.048Z,14.36
2023-05-10T09:04:28.588Z,14.37
2023-05-10T09:05:28.669Z,14.23
2023-05-10T09:06:29.474Z,14.23
2023-05-10T09:07:30.372Z,14.22
2023-05-10T09:08:31.100Z,14.15
2023-05-10T09:09:32.310Z,14.12
2023-05-10T09:10:32.225Z,14.2
2023-05-10T09:11:33.021Z,14.18
2023-05-10T09:12:33.986Z,14.2
2023-05-10T09:13:34.252Z,14.19
2023-05-10T09:14:34.045Z,14.2
2023-05-10T09:15:35.056Z,14.2
2023-05-10T09:16:35.119Z,14.2
2023-05-10T09:17:36.205Z,14.26
2023-05-10T09:18:36.452Z,14.34
2023-05-10T09:19:36.808Z,14.26
2023-05-10T09:20:37.325Z,14.37
2023-05-10T09:21:38.100Z,14.31
2023-05-10T09:22:38.680Z,14.34
2023-05-10T09:23:39.403Z,14.34
2023-05-10T09:24:39.975Z,14.36
2023-05-10T09:25:41.191Z,14.49
2023-05-10T09:26:41.414Z,14.4
2023-05-10T09:27:42.409Z,14.41
2023-05-10T09:28:42.456Z,14.48
2023-05-10T09:29:43.394Z,14.43
2023-05-10T09:30:43.638Z,14.51
2023-05-10T09:31:43.853Z,14.49
2023-05-10T09:32:45.009Z,14.44
2023-05-10T09:33:45.128Z,14.55
2023-05-10T09:34:46.399Z,14.51
2023-05-10T09:35:47.135Z,14.45
2023-05-10T09:36:47.912Z,14.45
2023-05-10T09:37:48.888Z,14.52
2023-05-10T09:38:49.863Z,14.53
2023-05-10T09:39:49.947Z,14.45
2023-05-10T09:40:50.615Z,14.43
2023-05-10T09:41:51.390Z,14.49
2023-05-10T09:42:52.557Z,14.45
2023-05-10T09:43:52.840Z,14.45
2023-05-10T09:44:53.657Z,14.45
2023-05-10T09:45:54.725Z,14.36
2023-05-10T09:46:54.684Z,14.43
2023-05-10T09:47:55.890Z,14.3
2023-05-10T09:48:56.587Z,14.37
2023-05-10T09:49:57.700Z,14.3
2023-05-10T09:50:57.429Z,14.38
2023-05-10T09:51:57.956Z,14.34
2023-05-10T09:52:58.977Z,14.37
2023-05-10T09:53:59.522Z,14.37
2023-05-10T09:55:00.633Z,14.3
2023-05-10T09:56:01.585Z,14.38
2023-05-10T09:57:02.520Z,14.34
2023-05-10T09:58:02.555Z,14.37
2023-05-10T09:59:03.318Z,14.34
2023-05-10T10:00:04.296Z,14.36
2023-05-10T10:01:05.234Z,14.38
2023-05-10T10:02:05.485Z,14.38
2023-05-10T10:03:06.414Z,14.49
2023-05-10T10:04:06.495Z,14.45
2023-05-10T10:05:07.780Z,14.44
2023-05-10T10:06:29.387Z,14.49
2023-05-10T10:07:08.369Z,14.55
2023-05-10T10:08:09.244Z,14.52
2023-05-10T10:09:10.163Z,14.58
2023-05-10T10:10:11.036Z,14.56
2023-05-10T10:11:12.146Z,14.62
2023-05-10T10:12:13.100Z,14.62
2023-05-10T10:13:14.043Z,14.51
2023-05-10T10:14:15.037Z,14.53
2023-05-10T10:15:17.214Z,14.49
2023-05-10T10:16:16.941Z,14.4
2023-05-10T10:17:17.046Z,14.36
2023-05-10T10:18:17.490Z,14.28
2023-05-10T10:19:18.144Z,14.28
2023-05-10T10:20:18.644Z,14.34
2023-05-10T10:21:18.688Z,14.36
2023-05-10T10:22:19.407Z,14.31
2023-05-10T10:23:21.662Z,14.33
2023-05-10T10:25:21.226Z,14.31
2023-05-10T10:26:22.054Z,14.44
2023-05-10T10:27:22.834Z,14.36
2023-05-10T10:28:26.095Z,14.41
2023-05-10T10:29:24.782Z,14.43
2023-05-10T10:30:25.713Z,14.43
2023-05-10T10:31:26.746Z,14.51
2023-05-10T10:32:27.176Z,14.48
2023-05-10T10:33:34.561Z,14.51
2023-05-10T10:35:29.079Z,14.58
2023-05-10T10:36:28.902Z,14.56
2023-05-10T10:37:29.663Z,14.63
2023-05-10T10:38:30.078Z,14.48
2023-05-10T10:39:31.198Z,14.51
2023-05-10T10:40:35.222Z,14.43
2023-05-10T10:42:32.763Z,14.37
2023-05-10T10:43:33.956Z,14.44
2023-05-10T10:44:34.753Z,14.36
2023-05-10T10:45:35.495Z,14.43
2023-05-10T10:46:36.170Z,14.33
2023-05-10T10:47:37.266Z,14.37
2023-05-10T10:48:37.138Z,14.33
2023-05-10T10:49:38.287Z,14.43
2023-05-10T10:50:38.980Z,14.45
2023-05-10T10:51:39.120Z,14.37
2023-05-10T10:52:40.337Z,14.44
2023-05-10T10:53:40.323Z,14.51
2023-05-10T10:54:41.084Z,14.48
2023-05-10T10:55:41.911Z,14.56
2023-05-10T10:56:42.876Z,14.53
2023-05-10T10:57:43.101Z,14.61
2023-05-10T10:58:43.633Z,14.58
2023-05-10T10:59:44.583Z,14.58
2023-05-10T11:00:44.697Z,14.58
2023-05-10T11:01:45.323Z,14.59
2023-05-10T11:02:45.914Z,14.63
2023-05-10T11:03:47.080Z,14.63
2023-05-10T11:04:48.334Z,14.62
2023-05-10T11:05:48.337Z,14.61
2023-05-10T11:06:48.334Z,14.63
2023-05-10T11:07:48.966Z,14.63
2023-05-10T11:08:49.798Z,14.61
2023-05-10T11:09:50.927Z,14.61
2023-05-10T11:10:50.879Z,14.68
2023-05-10T11:11:51.304Z,14.62
2023-05-10T11:12:52.209Z,14.62
2023-05-10T11:13:56.305Z,14.61
2023-05-10T11:15:54.045Z,14.68
2023-05-10T11:16:55.080Z,14.63
2023-05-10T11:17:55.892Z,14.68
2023-05-10T11:18:57.136Z,14.67
2023-05-10T11:19:57.094Z,14.71
2023-05-10T11:20:58.037Z,14.63
2023-05-10T11:21:58.315Z,14.79
2023-05-10T11:22:59.226Z,14.81
2023-05-10T11:24:00.470Z,14.79
2023-05-10T11:25:01.387Z,14.73
2023-05-10T11:26:02.316Z,14.67
2023-05-10T11:27:03.242Z,14.66
2023-05-10T11:28:02.974Z,14.67
2023-05-10T11:29:03.687Z,14.68
2023-05-10T11:30:05.331Z,14.56
2023-05-10T11:31:04.675Z,14.63
2023-05-10T11:32:04.923Z,14.68
2023-05-10T11:33:05.566Z,14.59
2023-05-10T11:34:06.619Z,14.58
2023-05-10T11:35:06.658Z,14.61
2023-05-10T11:36:07.266Z,14.62
2023-05-10T11:37:07.985Z,14.7
2023-05-10T11:38:08.700Z,14.61
2023-05-10T11:39:09.045Z,14.62
2023-05-10T11:40:09.571Z,14.68
2023-05-10T11:41:09.641Z,14.59
2023-05-10T11:42:10.519Z,14.55
2023-05-10T11:43:11.437Z,14.52
2023-05-10T11:44:12.018Z,14.48
2023-05-10T11:45:13.004Z,14.51
2023-05-10T11:46:13.880Z,14.45
2023-05-10T11:47:14.116Z,14.44
2023-05-10T11:48:14.486Z,14.37
2023-05-10T11:49:14.473Z,14.45
2023-05-10T11:50:15.533Z,14.37
2023-05-10T11:51:16.045Z,14.38
2023-05-10T11:52:16.120Z,14.38
2023-05-10T11:53:16.785Z,14.43
2023-05-10T11:54:18.109Z,14.43
2023-05-10T11:55:18.423Z,14.25
2023-05-10T11:56:19.373Z,14.19
2023-05-10T11:57:19.629Z,14.18
2023-05-10T11:58:19.559Z,14.18
2023-05-10T11:59:20.296Z,14.2
2023-05-10T12:00:21.543Z,14.18
2023-05-10T12:01:21.693Z,14.22
2023-05-10T12:02:22.379Z,14.23
2023-05-10T12:03:22.882Z,14.28
2023-05-10T12:04:23.599Z,14.3
2023-05-10T12:05:23.732Z,14.34
2023-05-10T12:06:23.970Z,14.34
2023-05-10T12:07:24.238Z,14.43
2023-05-10T12:08:24.032Z,14.43
2023-05-10T12:09:44.631Z,14.41
2023-05-10T12:11:25.826Z,14.34
2023-05-10T12:12:26.495Z,14.36
2023-05-10T12:13:27.247Z,14.34
2023-05-10T12:14:27.219Z,14.38
2023-05-10T12:15:27.774Z,14.34
2023-05-10T12:16:28.583Z,14.34
2023-05-10T12:17:28.506Z,14.4
2023-05-10T12:18:29.634Z,14.38
2023-05-10T12:19:29.474Z,14.3
2023-05-10T12:20:29.549Z,14.43
2023-05-10T12:21:30.760Z,14.34
2023-05-10T12:22:31.621Z,14.34
2023-05-10T12:23:32.533Z,14.25
2023-05-10T12:24:33.073Z,14.2
2023-05-10T12:25:33.620Z,14.13
2023-05-10T12:26:34.678Z,14.05
2023-05-10T12:27:35.250Z,14.11
2023-05-10T12:28:36.171Z,13.95
2023-05-10T12:29:36.720Z,13.93
2023-05-10T12:30:37.634Z,13.87
2023-05-10T12:31:39.434Z,13.85
2023-05-10T12:32:39.353Z,13.83
2023-05-10T12:33:40.531Z,13.86
2023-05-10T12:34:40.757Z,13.83
2023-05-10T12:35:43.495Z,13.82
2023-05-10T12:36:42.250Z,13.8
2023-05-10T12:37:43.160Z,13.8
2023-05-10T12:38:43.886Z,13.82
2023-05-10T12:39:44.916Z,13.8
2023-05-10T12:40:44.972Z,13.8
2023-05-10T12:41:47.112Z,13.85
2023-05-10T12:43:45.849Z,13.86
2023-05-10T12:44:46.705Z,13.8
2023-05-10T12:45:47.753Z,13.83
2023-05-10T12:46:47.957Z,13.85
2023-05-10T12:47:49.864Z,13.85
2023-05-10T12:48:53.205Z,13.87
2023-05-10T12:49:50.079Z,13.83
2023-05-10T12:50:51.131Z,13.79
2023-05-10T12:51:51.294Z,13.86
2023-05-10T12:52:52.044Z,13.85
2023-05-10T12:53:55.164Z,13.85
2023-05-10T12:55:53.639Z,13.87
2023-05-10T12:56:54.789Z,14.01
2023-05-10T12:57:55.316Z,14.03
2023-05-10T12:58:56.266Z,14.01
2023-05-10T12:59:57.022Z,13.94
2023-05-10T13:00:58.117Z,13.93
2023-05-10T13:01:57.931Z,14
2023-05-10T13:02:58.892Z,14.03
2023-05-10T13:03:58.963Z,14.04
2023-05-10T13:05:00.395Z,14.05
2023-05-10T13:06:00.354Z,14.12
2023-05-10T13:07:01.120Z,14.04
2023-05-10T13:08:01.453Z,14
2023-05-10T13:09:02.117Z,14.01
2023-05-10T13:10:02.495Z,14.04
2023-05-10T13:11:03.456Z,14.04
2023-05-10T13:12:03.988Z,14.01
2023-05-10T13:13:04.764Z,14.11
2023-05-10T13:14:05.259Z,14.18
2023-05-10T13:15:06.217Z,14.2
2023-05-10T13:16:07.137Z,14.11
2023-05-10T13:17:08.602Z,14.04
2023-05-10T13:18:09.279Z,14.04
2023-05-10T13:19:09.529Z,14.03